Time;durP1;ratioP1;P1;durP2;ratioP2;P2;SDS_P1;SDS_P2;PMS_P1;PMS_P2;Temp;Humidity;BMP_temperature;BMP_pressure;BME280_temperature;BME280_humidity;BME280_pressure;Samples;Min_cycle;Max_cycle;Signal;HPM_P1;HPM_P2
2023/10/19 00:01:28;;;;;;;3.65;3.45;;;4.30;99.90;;;;;;4975783;28;20211;-78
2023/10/19 00:03:57;;;;;;;2.60;2.50;;;4.30;99.90;;;;;;4976295;28;20771;-83
2023/10/19 00:06:25;;;;;;;2.88;2.67;;;4.30;99.90;;;;;;4973644;28;20252;-84
2023/10/19 00:08:56;;;;;;;1.95;1.77;;;4.40;99.90;;;;;;4981002;28;20463;-82
2023/10/19 00:11:25;;;;;;;5.45;4.45;;;4.40;99.90;;;;;;4973062;28;20254;-82
2023/10/19 00:13:57;;;;;;;3.25;3.05;;;4.40;99.90;;;;;;4987459;28;20259;-77
2023/10/19 00:16:35;;;;;;;2.28;2.17;;;4.30;99.90;;;;;;4959647;28;20532;-81
2023/10/19 00:19:03;;;;;;;8.00;7.40;;;4.40;99.90;;;;;;4978634;28;20205;-82
2023/10/19 00:21:43;;;;;;;7.72;4.80;;;4.30;99.90;;;;;;4953871;28;20285;-81
2023/10/19 00:24:10;;;;;;;4.20;4.03;;;4.30;99.90;;;;;;4978757;28;20587;-81
2023/10/19 00:26:40;;;;;;;3.65;3.40;;;4.30;99.90;;;;;;4975808;28;20719;-83
2023/10/19 00:29:23;;;;;;;2.80;2.60;;;4.30;99.90;;;;;;4970583;28;20305;-82
2023/10/19 00:31:50;;;;;;;6.10;3.20;;;4.30;99.90;;;;;;4973739;28;20234;-83
2023/10/19 00:34:32;;;;;;;3.92;3.63;;;4.20;99.90;;;;;;4976330;28;20206;-79
2023/10/19 00:37:07;;;;;;;1.20;1.20;;;4.20;99.90;;;;;;4974097;28;20210;-82
2023/10/19 00:39:50;;;;;;;13.32;4.60;;;4.20;99.90;;;;;;4967840;28;20607;-81
2023/10/19 00:42:23;;;;;;;4.65;4.03;;;4.10;99.90;;;;;;4982559;28;20274;-79
2023/10/19 00:44:51;;;;;;;4.80;4.32;;;4.10;99.90;;;;;;4972120;28;20195;-84
2023/10/19 00:47:24;;;;;;;3.90;3.55;;;4.10;99.90;;;;;;4978946;28;20288;-81
2023/10/19 00:49:53;;;;;;;4.93;4.63;;;4.20;99.90;;;;;;4978019;28;20274;-80
2023/10/19 00:52:23;;;;;;;4.38;3.38;;;4.20;99.90;;;;;;4970516;28;20207;-80
2023/10/19 00:54:53;;;;;;;2.83;2.63;;;4.30;99.90;;;;;;4976787;28;20222;-80
2023/10/19 00:57:22;;;;;;;1.60;1.52;;;4.30;99.90;;;;;;4973631;28;20226;-81
2023/10/19 00:59:54;;;;;;;2.50;2.40;;;4.30;99.90;;;;;;4971448;28;20530;-80
2023/10/19 01:05:05;;;;;;;3.97;2.50;;;4.30;99.90;;;;;;4971409;28;20211;-80
2023/10/19 01:07:37;;;;;;;1.77;1.70;;;4.20;99.90;;;;;;4974992;28;20306;-81
2023/10/19 01:10:20;;;;;;;2.38;2.28;;;4.20;99.90;;;;;;4958937;28;20663;-80
2023/10/19 01:12:47;;;;;;;7.93;4.75;;;4.20;99.90;;;;;;4946779;28;20210;-77
2023/10/19 01:15:29;;;;;;;1.35;1.25;;;4.10;99.90;;;;;;4955609;28;20195;-78
2023/10/19 01:17:58;;;;;;;4.10;3.78;;;4.20;99.90;;;;;;4973171;28;20213;-77
2023/10/19 01:23:09;;;;;;;4.40;4.07;;;4.20;99.90;;;;;;4985242;28;20226;-86
2023/10/19 01:28:52;;;;;;;2.47;2.38;;;4.00;99.90;;;;;;4973922;28;20202;-82
2023/10/19 01:31:22;;;;;;;5.07;4.78;;;4.00;99.90;;;;;;4986860;28;20217;-87
2023/10/19 01:33:54;;;;;;;5.38;4.93;;;3.80;99.90;;;;;;4954999;28;20203;-84
2023/10/19 01:38:55;;;;;;;6.38;4.13;;;3.90;99.90;;;;;;4971119;28;20278;-86
2023/10/19 01:41:26;;;;;;;3.88;3.67;;;3.90;99.90;;;;;;4976900;28;20578;-80
2023/10/19 01:43:54;;;;;;;4.82;4.50;;;4.10;99.90;;;;;;4970014;28;20223;-81
2023/10/19 01:46:25;;;;;;;2.72;2.55;;;4.10;99.90;;;;;;4968460;28;20265;-82
2023/10/19 01:48:55;;;;;;;4.47;4.05;;;4.00;99.90;;;;;;4950183;28;20255;-80
2023/10/19 01:51:25;;;;;;;3.85;3.65;;;4.00;99.90;;;;;;4970572;28;20585;-81
2023/10/19 01:53:55;;;;;;;1.20;1.20;;;4.00;99.90;;;;;;4974587;28;20278;-82
2023/10/19 01:56:24;;;;;;;8.80;2.90;;;3.90;99.90;;;;;;4960142;28;20190;-82
2023/10/19 01:58:54;;;;;;;3.10;2.80;;;4.00;99.90;;;;;;4980155;28;20208;-78
2023/10/19 02:01:28;;;;;;;2.45;2.25;;;4.00;99.90;;;;;;4960019;28;20220;-81
2023/10/19 02:03:59;;;;;;;3.05;2.78;;;4.00;99.90;;;;;;4961488;28;20242;-81
2023/10/19 02:06:36;;;;;;;1.20;1.20;;;4.10;99.90;;;;;;4943069;28;20246;-81
2023/10/19 02:09:32;;;;;;;2.95;2.17;;;4.10;99.90;;;;;;4967399;28;20210;-79
2023/10/19 02:12:01;;;;;;;5.78;3.88;;;4.10;99.90;;;;;;4960178;28;20210;-85
2023/10/19 02:14:33;;;;;;;2.63;2.47;;;4.00;99.90;;;;;;4977967;28;20574;-84
2023/10/19 02:17:02;;;;;;;3.22;2.50;;;4.10;99.90;;;;;;4975752;28;20258;-85
2023/10/19 02:19:29;;;;;;;4.28;3.95;;;4.20;99.90;;;;;;4972409;28;20215;-85
2023/10/19 02:22:18;;;;;;;1.70;1.70;;;4.10;99.90;;;;;;4974049;28;20214;-84
2023/10/19 02:24:45;;;;;;;1.75;1.75;;;4.20;99.90;;;;;;4969669;28;20211;-79
2023/10/19 02:27:12;;;;;;;3.13;2.92;;;4.20;99.90;;;;;;4976154;28;20238;-81
2023/10/19 02:29:58;;;;;;;3.55;3.33;;;4.00;99.90;;;;;;4971002;28;20207;-83
2023/10/19 02:32:25;;;;;;;2.35;2.25;;;4.00;99.90;;;;;;4975197;28;20230;-79
2023/10/19 02:34:52;;;;;;;3.45;3.15;;;4.00;99.90;;;;;;4969303;28;20271;-87
2023/10/19 02:37:21;;;;;;;1.73;1.63;;;3.90;99.90;;;;;;4964293;28;20536;-82
2023/10/19 02:39:49;;;;;;;1.92;1.83;;;3.80;99.90;;;;;;4969422;28;20215;-80
2023/10/19 02:42:17;;;;;;;7.38;4.55;;;3.80;99.90;;;;;;4970242;28;20213;-81
2023/10/19 02:44:44;;;;;;;5.05;4.50;;;3.80;99.90;;;;;;4976024;28;20653;-81
2023/10/19 02:47:10;;;;;;;11.20;5.00;;;3.90;99.90;;;;;;4971735;28;20265;-80
2023/10/19 02:49:39;;;;;;;5.15;4.85;;;3.90;99.90;;;;;;4972712;28;20221;-87
2023/10/19 02:52:27;;;;;;;2.70;2.50;;;3.80;99.90;;;;;;4971977;28;20492;-81
2023/10/19 02:54:56;;;;;;;14.80;6.13;;;3.80;99.90;;;;;;4971400;28;20210;-81
2023/10/19 02:57:24;;;;;;;2.00;1.92;;;3.80;99.90;;;;;;4971741;28;20285;-86
2023/10/19 02:59:51;;;;;;;3.97;3.78;;;3.90;99.90;;;;;;4974010;28;20211;-84
2023/10/19 03:02:19;;;;;;;3.15;3.05;;;3.80;99.90;;;;;;4976185;28;20203;-79
2023/10/19 03:04:46;;;;;;;4.78;4.38;;;3.80;99.90;;;;;;4981437;28;20514;-84
2023/10/19 03:07:15;;;;;;;6.60;6.00;;;3.70;99.90;;;;;;4985228;28;20262;-82
2023/10/19 03:09:49;;;;;;;3.50;3.30;;;3.70;99.90;;;;;;4977786;28;20211;-81
2023/10/19 03:12:17;;;;;;;2.67;2.58;;;3.70;99.90;;;;;;4977527;28;20511;-79
2023/10/19 03:14:47;;;;;;;3.45;3.28;;;3.80;99.90;;;;;;4977881;28;20243;-81
2023/10/19 03:17:15;;;;;;;2.13;2.03;;;3.90;99.90;;;;;;4974994;28;20213;-80
2023/10/19 03:19:43;;;;;;;3.35;3.15;;;3.90;99.90;;;;;;4978154;28;20797;-80
2023/10/19 03:22:11;;;;;;;6.82;6.22;;;3.90;99.90;;;;;;4969508;28;20403;-80
2023/10/19 03:24:43;;;;;;;6.53;6.03;;;3.90;99.90;;;;;;4971738;28;20222;-79
2023/10/19 03:27:21;;;;;;;7.25;5.63;;;4.00;99.90;;;;;;4975557;28;20282;-80
2023/10/19 03:29:55;;;;;;;4.07;3.83;;;3.90;99.90;;;;;;4970845;28;20388;-80
2023/10/19 03:32:26;;;;;;;2.15;2.03;;;4.00;99.90;;;;;;4978669;28;20506;-87
2023/10/19 03:34:59;;;;;;;2.30;2.20;;;4.00;99.90;;;;;;4961381;28;20635;-82
2023/10/19 03:37:31;;;;;;;12.77;6.72;;;4.00;99.90;;;;;;4981743;28;20222;-81
2023/10/19 03:39:58;;;;;;;4.15;3.58;;;3.90;99.90;;;;;;4976832;28;20243;-83
2023/10/19 03:42:28;;;;;;;12.20;5.25;;;4.00;99.90;;;;;;4970111;28;20211;-80
2023/10/19 03:44:57;;;;;;;3.03;2.85;;;4.00;99.90;;;;;;4969773;28;20310;-82
2023/10/19 03:47:44;;;;;;;2.00;1.90;;;4.10;99.90;;;;;;4973275;28;20231;-84
2023/10/19 03:50:15;;;;;;;3.22;3.03;;;4.00;99.90;;;;;;4980762;28;20210;-80
2023/10/19 03:52:42;;;;;;;9.65;6.60;;;4.10;99.90;;;;;;4993349;28;20207;-79
2023/10/19 03:55:15;;;;;;;5.88;5.53;;;4.20;99.90;;;;;;4977283;28;20211;-79
2023/10/19 03:57:46;;;;;;;5.35;3.67;;;4.20;99.90;;;;;;4980566;28;20218;-80
2023/10/19 04:00:24;;;;;;;3.70;3.38;;;4.20;99.90;;;;;;4967164;28;20209;-78
2023/10/19 04:02:53;;;;;;;4.28;3.97;;;4.20;99.90;;;;;;4960385;28;20206;-87
2023/10/19 04:05:22;;;;;;;3.78;3.58;;;4.20;99.90;;;;;;4981164;28;20226;-79
2023/10/19 04:07:52;;;;;;;3.13;3.03;;;4.20;99.90;;;;;;4968777;28;20278;-78
2023/10/19 04:13:02;;;;;;;2.63;2.53;;;4.40;99.90;;;;;;4964589;28;20247;-83
2023/10/19 04:15:33;;;;;;;6.63;6.18;;;4.40;99.90;;;;;;4973737;28;20222;-80
2023/10/19 04:18:08;;;;;;;5.45;5.07;;;4.50;99.90;;;;;;4970376;28;20545;-80
2023/10/19 04:20:54;;;;;;;7.15;6.43;;;4.40;99.90;;;;;;4978793;28;20410;-83
2023/10/19 04:23:22;;;;;;;1.95;1.85;;;4.50;99.90;;;;;;4974897;28;20230;-80
2023/10/19 04:25:49;;;;;;;3.35;3.25;;;4.50;99.90;;;;;;4980007;28;20218;-79
2023/10/19 04:28:21;;;;;;;4.32;4.10;;;4.50;99.90;;;;;;4958744;28;20207;-88
2023/10/19 04:30:49;;;;;;;3.65;3.35;;;4.60;99.90;;;;;;4962660;28;20249;-89
2023/10/19 04:33:18;;;;;;;3.00;2.90;;;4.50;99.90;;;;;;4964865;28;20220;-89
2023/10/19 04:35:51;;;;;;;5.28;4.90;;;4.50;99.90;;;;;;4964324;28;20278;-84
2023/10/19 04:38:18;;;;;;;5.15;4.63;;;4.60;99.90;;;;;;4968731;28;20237;-90
2023/10/19 04:40:45;;;;;;;3.30;3.10;;;4.50;99.90;;;;;;4976446;28;20194;-80
2023/10/19 04:43:13;;;;;;;4.82;4.57;;;4.50;99.90;;;;;;4989374;28;20194;-79
2023/10/19 04:45:40;;;;;;;2.47;2.38;;;4.50;99.90;;;;;;4973192;28;20588;-79
2023/10/19 04:48:07;;;;;;;2.40;2.30;;;4.60;99.90;;;;;;4971762;28;20566;-79
2023/10/19 04:50:34;;;;;;;2.03;1.92;;;4.60;99.90;;;;;;4975955;28;20210;-82
2023/10/19 04:53:03;;;;;;;1.00;1.00;;;4.60;99.90;;;;;;4976452;28;20242;-85
2023/10/19 04:55:33;;;;;;;5.68;5.28;;;4.60;99.90;;;;;;4972037;28;20222;-80
2023/10/19 04:58:03;;;;;;;2.92;2.78;;;4.70;99.90;;;;;;4971230;28;20203;-82
2023/10/19 05:00:30;;;;;;;3.92;3.72;;;4.60;99.90;;;;;;4973109;28;20246;-77
2023/10/19 05:03:15;;;;;;;3.55;3.35;;;4.60;99.90;;;;;;4974032;28;20253;-81
2023/10/19 05:05:42;;;;;;;4.40;4.15;;;4.60;99.90;;;;;;4976051;28;20235;-81
2023/10/19 05:08:09;;;;;;;3.88;3.67;;;4.60;99.90;;;;;;4980719;28;20237;-80
2023/10/19 05:10:37;;;;;;;5.00;4.65;;;4.70;99.90;;;;;;4968258;28;20259;-82
2023/10/19 05:13:04;;;;;;;1.95;1.85;;;4.70;99.90;;;;;;4969286;28;20304;-81
2023/10/19 05:15:34;;;;;;;3.17;2.97;;;4.70;99.90;;;;;;4972204;28;20455;-87
2023/10/19 05:18:02;;;;;;;9.20;3.92;;;4.90;99.90;;;;;;4968271;28;20239;-82
2023/10/19 05:20:30;;;;;;;3.70;3.53;;;4.80;99.90;;;;;;4968393;28;20212;-90
2023/10/19 05:23:05;;;;;;;3.58;3.38;;;4.70;99.90;;;;;;4971411;28;20244;-87
2023/10/19 05:25:32;;;;;;;6.68;4.93;;;5.00;99.90;;;;;;4975568;28;20463;-80
2023/10/19 05:28:04;;;;;;;5.28;4.72;;;4.90;99.90;;;;;;4963807;28;20238;-85
2023/10/19 05:30:35;;;;;;;5.55;5.20;;;4.90;99.90;;;;;;4950344;28;20398;-82
2023/10/19 05:33:03;;;;;;;2.45;2.35;;;4.90;99.90;;;;;;4968352;28;20211;-82
2023/10/19 05:35:38;;;;;;;4.68;4.47;;;4.80;99.90;;;;;;4968990;28;20282;-88
2023/10/19 05:38:06;;;;;;;4.50;4.18;;;4.90;99.90;;;;;;4968321;28;20267;-83
2023/10/19 05:40:35;;;;;;;3.92;3.63;;;4.90;99.90;;;;;;4981470;28;20230;-82
2023/10/19 05:43:03;;;;;;;2.97;2.88;;;5.00;99.90;;;;;;4983939;28;20208;-79
2023/10/19 05:45:32;;;;;;;4.82;4.50;;;5.00;99.90;;;;;;4975801;28;20263;-79
2023/10/19 05:48:00;;;;;;;5.40;2.42;;;5.10;99.90;;;;;;4963540;28;20236;-82
2023/10/19 05:50:28;;;;;;;3.78;3.47;;;5.10;99.90;;;;;;4973200;28;20213;-81
2023/10/19 05:52:55;;;;;;;3.17;2.85;;;5.10;99.90;;;;;;4976771;28;20213;-84
2023/10/19 05:55:23;;;;;;;3.53;3.33;;;5.10;99.90;;;;;;4973706;28;20197;-82
2023/10/19 05:57:51;;;;;;;1.92;1.83;;;5.20;99.90;;;;;;4964209;28;20214;-80
2023/10/19 06:00:20;;;;;;;10.23;5.15;;;5.20;99.90;;;;;;4974824;28;20314;-82
2023/10/19 06:02:49;;;;;;;4.28;4.00;;;5.20;99.90;;;;;;4970552;28;20317;-80
2023/10/19 06:05:17;;;;;;;4.10;3.90;;;5.30;99.90;;;;;;4972327;28;20226;-79
2023/10/19 06:07:46;;;;;;;2.45;2.35;;;5.30;99.90;;;;;;4974426;28;20245;-78
2023/10/19 06:10:15;;;;;;;4.40;4.00;;;5.40;99.90;;;;;;4975931;28;20237;-86
2023/10/19 06:12:49;;;;;;;5.35;4.97;;;5.40;99.90;;;;;;4960926;28;20340;-81
2023/10/19 06:15:20;;;;;;;5.50;5.03;;;5.40;99.90;;;;;;4970665;28;20207;-81
2023/10/19 06:17:49;;;;;;;26.58;7.10;;;5.40;99.90;;;;;;4970750;28;20515;-80
2023/10/19 06:20:28;;;;;;;5.07;4.68;;;5.50;99.90;;;;;;4958904;28;20227;-79
2023/10/19 06:23:00;;;;;;;3.40;3.30;;;5.50;99.90;;;;;;4967086;28;20211;-78
2023/10/19 06:25:28;;;;;;;4.22;3.92;;;5.50;99.90;;;;;;4943025;28;20550;-87
2023/10/19 06:27:57;;;;;;;2.95;2.85;;;5.50;99.90;;;;;;4970549;28;20231;-80
2023/10/19 06:30:26;;;;;;;6.22;5.72;;;5.50;99.90;;;;;;4973160;28;20290;-86
2023/10/19 06:33:00;;;;;;;3.67;3.40;;;5.60;99.90;;;;;;4962572;28;20279;-81
2023/10/19 06:35:31;;;;;;;4.72;3.90;;;5.50;99.90;;;;;;4965547;28;20197;-79
2023/10/19 06:37:59;;;;;;;6.07;5.68;;;5.60;99.90;;;;;;4968704;28;20200;-85
2023/10/19 06:40:27;;;;;;;2.78;2.67;;;5.60;99.90;;;;;;4970216;28;20265;-82
2023/10/19 06:42:58;;;;;;;4.55;4.35;;;5.60;99.90;;;;;;4958736;28;20262;-84
2023/10/19 06:45:26;;;;;;;5.28;4.78;;;5.60;99.90;;;;;;4972413;28;20307;-78
2023/10/19 06:47:53;;;;;;;2.80;2.63;;;5.70;99.90;;;;;;4972706;28;20245;-79
2023/10/19 06:50:21;;;;;;;3.25;3.05;;;5.70;99.90;;;;;;4973519;28;20203;-84
2023/10/19 06:52:50;;;;;;;2.40;2.30;;;5.70;99.90;;;;;;4946972;28;20710;-85
2023/10/19 06:55:20;;;;;;;3.97;3.75;;;5.60;99.90;;;;;;4969177;28;20567;-85
2023/10/19 06:57:49;;;;;;;4.75;3.50;;;5.70;99.90;;;;;;4978334;28;20227;-83
2023/10/19 07:00:20;;;;;;;2.83;2.60;;;5.70;99.90;;;;;;4955363;28;20217;-81
2023/10/19 07:02:50;;;;;;;4.75;4.43;;;5.70;99.90;;;;;;4979494;28;20531;-84
2023/10/19 07:05:24;;;;;;;1.75;1.70;;;5.80;99.90;;;;;;4973752;28;20210;-83
2023/10/19 07:07:54;;;;;;;4.05;3.85;;;5.70;99.90;;;;;;4968664;28;20249;-85
2023/10/19 07:10:27;;;;;;;3.13;2.95;;;5.70;99.90;;;;;;4976999;28;20207;-82
2023/10/19 07:12:57;;;;;;;5.18;4.88;;;5.70;99.90;;;;;;4979601;28;20207;-84
2023/10/19 07:15:29;;;;;;;3.30;3.00;;;5.70;99.90;;;;;;4970929;28;20265;-84
2023/10/19 07:17:58;;;;;;;4.28;3.33;;;5.70;99.90;;;;;;4978031;28;20218;-85
2023/10/19 07:20:31;;;;;;;2.33;2.22;;;5.70;99.90;;;;;;4980761;28;20206;-78
2023/10/19 07:23:10;;;;;;;3.72;3.53;;;5.80;99.90;;;;;;4963412;28;20192;-85
2023/10/19 07:25:43;;;;;;;4.40;4.10;;;5.80;99.90;;;;;;4966167;28;20235;-81
2023/10/19 07:28:15;;;;;;;3.85;3.65;;;5.80;99.90;;;;;;4965315;28;20232;-80
2023/10/19 07:30:43;;;;;;;2.65;2.45;;;5.70;99.90;;;;;;4979616;28;20230;-85
2023/10/19 07:33:19;;;;;;;3.33;2.97;;;5.70;99.90;;;;;;4956870;28;20208;-87
2023/10/19 07:35:47;;;;;;;2.85;2.65;;;5.80;99.90;;;;;;4971903;28;20207;-84
2023/10/19 07:38:23;;;;;;;3.80;3.60;;;5.90;99.90;;;;;;4958453;28;20199;-81
2023/10/19 07:40:52;;;;;;;2.90;2.80;;;6.00;99.90;;;;;;4966998;28;20234;-78
2023/10/19 07:43:22;;;;;;;5.93;5.50;;;6.20;99.90;;;;;;4975576;28;20208;-85
2023/10/19 07:45:53;;;;;;;10.30;6.32;;;6.30;99.90;;;;;;4974046;28;20241;-85
2023/10/19 07:48:22;;;;;;;2.47;2.38;;;6.30;99.90;;;;;;4972439;28;20254;-85
2023/10/19 07:50:53;;;;;;;5.22;4.97;;;6.40;99.90;;;;;;4976243;28;20225;-84
2023/10/19 07:53:21;;;;;;;3.28;3.15;;;6.30;99.90;;;;;;4988594;28;20240;-83
2023/10/19 07:55:48;;;;;;;2.30;2.20;;;6.40;99.90;;;;;;4977648;28;20264;-84
2023/10/19 07:58:16;;;;;;;5.40;4.97;;;6.40;99.90;;;;;;4958833;28;20495;-79
2023/10/19 08:00:46;;;;;;;4.88;4.53;;;6.50;99.90;;;;;;4966862;28;20482;-86
2023/10/19 08:03:19;;;;;;;2.80;2.70;;;6.40;99.90;;;;;;4977415;28;20219;-87
2023/10/19 08:05:46;;;;;;;6.65;5.70;;;6.50;99.90;;;;;;4983480;28;20259;-79
2023/10/19 08:08:13;;;;;;;5.82;3.95;;;6.50;99.90;;;;;;4973646;28;20234;-85
2023/10/19 08:10:43;;;;;;;3.83;3.60;;;6.50;99.90;;;;;;4985069;28;20229;-85
2023/10/19 08:13:12;;;;;;;5.40;4.53;;;6.50;99.90;;;;;;4987959;28;20203;-84
2023/10/19 08:15:40;;;;;;;6.50;5.97;;;6.60;99.90;;;;;;4963923;28;20274;-79
2023/10/19 08:18:07;;;;;;;2.47;2.38;;;6.50;99.90;;;;;;4977386;28;20213;-82
2023/10/19 08:20:37;;;;;;;4.55;4.25;;;6.50;99.90;;;;;;4974925;28;20641;-79
2023/10/19 08:23:05;;;;;;;9.55;4.45;;;6.50;99.90;;;;;;4976013;28;20609;-83
2023/10/19 08:25:33;;;;;;;5.93;5.57;;;6.40;99.90;;;;;;4976257;28;20207;-80
2023/10/19 08:28:20;;;;;;;2.60;2.50;;;6.50;99.90;;;;;;4978765;28;20439;-81
2023/10/19 08:30:56;;;;;;;6.53;4.40;;;6.60;99.90;;;;;;4977584;28;20424;-84
2023/10/19 08:33:29;;;;;;;8.82;8.10;;;6.60;99.90;;;;;;4966235;28;20200;-88
2023/10/19 08:35:57;;;;;;;5.10;4.80;;;6.70;99.90;;;;;;4962914;28;20203;-86
2023/10/19 08:38:25;;;;;;;3.45;3.25;;;6.70;99.90;;;;;;4955998;28;20442;-78
2023/10/19 08:40:58;;;;;;;5.55;5.25;;;6.60;99.90;;;;;;4979792;28;20210;-81
2023/10/19 08:43:28;;;;;;;3.45;3.22;;;6.60;99.90;;;;;;4974003;28;20215;-79
2023/10/19 08:45:57;;;;;;;3.03;2.65;;;6.60;99.90;;;;;;4970679;28;20218;-84
2023/10/19 08:48:26;;;;;;;11.75;3.45;;;6.60;99.90;;;;;;4971943;28;20243;-82
2023/10/19 08:50:55;;;;;;;4.55;4.25;;;6.60;99.90;;;;;;4979304;28;20198;-80
2023/10/19 08:53:25;;;;;;;6.82;5.75;;;6.70;99.90;;;;;;4968137;28;20285;-85
2023/10/19 08:55:54;;;;;;;11.82;10.63;;;6.90;99.90;;;;;;4957936;28;20287;-82
2023/10/19 08:58:22;;;;;;;16.88;7.65;;;6.90;99.90;;;;;;4973187;28;20206;-88
2023/10/19 09:00:54;;;;;;;5.00;4.75;;;6.90;99.90;;;;;;4956624;28;20547;-80
2023/10/19 09:03:25;;;;;;;10.27;3.25;;;7.00;99.90;;;;;;4976737;28;20269;-83
2023/10/19 09:05:54;;;;;;;3.45;3.25;;;7.10;99.90;;;;;;4971735;28;20238;-82
2023/10/19 09:08:22;;;;;;;6.32;5.82;;;7.10;99.90;;;;;;4971941;28;20446;-80
2023/10/19 09:10:53;;;;;;;3.72;3.55;;;7.10;99.90;;;;;;4969158;28;20187;-82
2023/10/19 09:13:22;;;;;;;6.53;5.82;;;7.00;99.90;;;;;;4982521;28;20193;-83
2023/10/19 09:16:00;;;;;;;5.25;4.95;;;6.90;99.90;;;;;;4974852;28;20454;-86
2023/10/19 09:18:30;;;;;;;9.98;8.60;;;7.00;99.90;;;;;;4955160;28;20206;-83
2023/10/19 09:21:07;;;;;;;7.72;6.47;;;7.00;99.90;;;;;;4955518;28;20420;-82
2023/10/19 09:23:36;;;;;;;4.85;4.50;;;7.10;99.90;;;;;;4959592;28;20214;-82
2023/10/19 09:26:05;;;;;;;5.55;3.47;;;7.10;99.90;;;;;;4966240;28;20203;-81
2023/10/19 09:28:37;;;;;;;8.55;7.93;;;7.10;99.90;;;;;;4978894;28;20226;-86
2023/10/19 09:31:09;;;;;;;5.30;4.03;;;7.10;99.90;;;;;;4958149;28;20219;-82
2023/10/19 09:33:41;;;;;;;3.13;2.92;;;7.10;99.90;;;;;;4977651;28;20230;-81
2023/10/19 09:36:16;;;;;;;2.20;2.10;;;7.30;99.90;;;;;;4964592;28;20246;-84
2023/10/19 09:38:53;;;;;;;10.68;5.18;;;7.40;99.90;;;;;;4965435;28;20210;-82
2023/10/19 09:41:21;;;;;;;5.97;5.45;;;7.40;99.90;;;;;;4974645;28;20231;-81
2023/10/19 09:43:50;;;;;;;3.10;2.90;;;7.40;99.90;;;;;;4972508;28;20199;-80
2023/10/19 09:46:29;;;;;;;2.72;2.50;;;7.40;99.90;;;;;;4976528;28;20216;-84
2023/10/19 09:48:56;;;;;;;5.95;4.50;;;7.40;99.90;;;;;;4951604;28;20770;-81
2023/10/19 09:51:24;;;;;;;4.47;4.25;;;7.40;99.90;;;;;;4978145;28;20273;-84
2023/10/19 09:54:02;;;;;;;4.55;4.25;;;7.30;99.90;;;;;;4978329;28;20194;-82
2023/10/19 09:56:41;;;;;;;4.20;4.00;;;7.30;99.90;;;;;;4973828;28;20213;-84
2023/10/19 09:59:34;;;;;;;4.57;4.28;;;7.50;99.90;;;;;;4962321;28;20262;-84
2023/10/19 10:02:12;;;;;;;4.72;2.05;;;7.50;99.90;;;;;;4972867;28;20204;-85
2023/10/19 10:04:42;;;;;;;2.50;2.40;;;7.40;99.90;;;;;;4986450;28;20215;-84
2023/10/19 10:07:09;;;;;;;3.72;3.53;;;7.40;99.90;;;;;;4975470;28;20199;-80
2023/10/19 10:09:44;;;;;;;2.33;2.22;;;7.30;99.90;;;;;;4977888;28;20203;-84
2023/10/19 10:12:27;;;;;;;2.25;2.13;;;7.40;99.90;;;;;;4985424;28;20221;-80
2023/10/19 10:15:05;;;;;;;2.05;1.98;;;7.60;99.90;;;;;;4985415;28;20245;-82
2023/10/19 10:17:37;;;;;;;6.45;6.03;;;7.70;99.90;;;;;;4962645;28;20282;-82
2023/10/19 10:20:17;;;;;;;3.50;3.30;;;7.40;99.90;;;;;;4969163;28;20212;-83
2023/10/19 10:23:32;;;;;;;3.15;2.88;;;7.40;99.90;;;;;;4966022;28;20279;-85
2023/10/19 10:26:04;;;;;;;3.67;3.47;;;7.50;99.90;;;;;;4967233;28;20242;-85
2023/10/19 10:28:31;;;;;;;10.48;5.78;;;7.40;99.90;;;;;;4981784;28;20235;-85
2023/10/19 10:31:07;;;;;;;2.28;2.17;;;7.40;99.90;;;;;;4979016;28;20246;-81
2023/10/19 10:33:48;;;;;;;4.35;4.05;;;7.40;99.90;;;;;;4985331;28;20194;-83
2023/10/19 10:36:19;;;;;;;2.75;2.65;;;7.30;99.90;;;;;;4976266;28;20226;-84
2023/10/19 10:38:49;;;;;;;6.10;5.78;;;7.30;99.90;;;;;;4965629;28;20203;-88
2023/10/19 10:41:28;;;;;;;4.47;4.22;;;7.40;99.90;;;;;;5095156;23;20355;-85
2023/10/19 10:43:56;;;;;;;5.75;5.40;;;7.30;99.90;;;;;;4950246;29;20207;-85
2023/10/19 10:46:29;;;;;;;1.85;1.75;;;7.30;99.90;;;;;;4952876;28;20204;-82
2023/10/19 10:48:57;;;;;;;2.58;2.30;;;7.30;99.90;;;;;;4946695;29;20227;-81
2023/10/19 10:51:28;;;;;;;2.55;2.45;;;7.10;99.90;;;;;;4956661;29;20215;-88
2023/10/19 10:53:57;;;;;;;4.57;4.28;;;7.30;99.90;;;;;;4944326;29;20208;-87
2023/10/19 10:56:24;;;;;;;3.88;3.67;;;7.30;99.90;;;;;;4955086;29;20207;-86
2023/10/19 10:58:54;;;;;;;3.08;2.97;;;7.30;99.90;;;;;;4952670;28;20210;-82
2023/10/19 11:01:32;;;;;;;1.65;1.55;;;7.20;99.90;;;;;;4946617;29;20259;-82
2023/10/19 11:04:08;;;;;;;4.63;4.15;;;7.20;99.90;;;;;;4953998;29;20226;-86
2023/10/19 11:06:55;;;;;;;4.57;4.35;;;7.20;99.90;;;;;;4959612;29;20225;-81
2023/10/19 11:09:25;;;;;;;2.35;2.25;;;7.20;99.90;;;;;;4947672;29;20249;-86
2023/10/19 11:11:56;;;;;;;2.05;1.95;;;7.30;99.90;;;;;;4948081;29;20196;-82
2023/10/19 11:14:25;;;;;;;3.25;3.03;;;7.20;99.90;;;;;;4945697;29;20268;-86
2023/10/19 11:16:53;;;;;;;5.47;4.93;;;7.20;99.90;;;;;;4950362;29;20235;-78
2023/10/19 11:19:21;;;;;;;3.95;3.75;;;7.10;99.90;;;;;;4941097;29;20416;-81
2023/10/19 11:21:55;;;;;;;2.47;2.38;;;7.20;99.90;;;;;;4957861;29;20212;-81
2023/10/19 11:24:26;;;;;;;2.83;2.63;;;7.20;99.90;;;;;;4954047;29;20329;-79
2023/10/19 11:26:55;;;;;;;4.90;4.60;;;7.20;99.90;;;;;;4950048;28;20196;-84
2023/10/19 11:29:23;;;;;;;3.47;3.17;;;7.10;99.90;;;;;;4955575;28;20409;-84
2023/10/19 11:32:00;;;;;;;9.43;8.10;;;7.10;99.90;;;;;;4946086;29;20208;-81
2023/10/19 11:34:34;;;;;;;2.50;2.40;;;7.20;99.90;;;;;;4958310;29;20216;-84
2023/10/19 11:37:03;;;;;;;6.53;4.70;;;7.30;99.90;;;;;;4945904;29;20238;-81
2023/10/19 11:39:31;;;;;;;4.55;4.25;;;7.30;99.90;;;;;;4958510;29;20247;-78
2023/10/19 11:41:57;;;;;;;3.80;3.50;;;7.40;99.90;;;;;;4957234;28;20261;-82
2023/10/19 11:44:25;;;;;;;1.65;1.65;;;7.40;99.90;;;;;;4953668;29;20266;-80
2023/10/19 11:46:52;;;;;;;3.20;2.90;;;7.50;99.90;;;;;;4954585;29;20240;-81
2023/10/19 11:49:20;;;;;;;2.30;2.20;;;7.50;99.90;;;;;;4951053;29;20238;-83
2023/10/19 11:51:49;;;;;;;2.78;2.63;;;7.60;99.90;;;;;;4957332;29;20219;-79
2023/10/19 11:54:18;;;;;;;3.42;3.22;;;7.60;99.90;;;;;;4962417;29;20259;-80
2023/10/19 11:56:45;;;;;;;5.35;5.05;;;7.60;99.90;;;;;;4964970;28;20211;-78
2023/10/19 11:59:12;;;;;;;6.13;5.68;;;7.50;99.90;;;;;;4957271;29;20204;-84
2023/10/19 12:01:40;;;;;;;3.58;3.38;;;7.60;99.90;;;;;;4957860;28;20233;-85
2023/10/19 12:04:07;;;;;;;8.38;7.78;;;7.60;99.90;;;;;;4956129;29;20231;-79
2023/10/19 12:06:34;;;;;;;6.25;5.90;;;7.60;99.90;;;;;;4958999;29;20827;-81
2023/10/19 12:09:14;;;;;;;3.10;3.00;;;7.60;99.90;;;;;;4949236;29;20232;-82
2023/10/19 12:11:42;;;;;;;2.78;2.60;;;7.50;99.90;;;;;;4962091;29;20210;-85
2023/10/19 12:14:14;;;;;;;1.52;1.52;;;7.60;99.90;;;;;;4953537;29;20204;-83
2023/10/19 12:16:41;;;;;;;4.97;4.65;;;7.50;99.90;;;;;;4958246;29;20211;-82
2023/10/19 12:19:09;;;;;;;4.45;4.13;;;7.60;99.90;;;;;;4956058;29;20509;-83
2023/10/19 12:21:37;;;;;;;2.20;1.98;;;7.60;99.90;;;;;;4959903;29;20263;-81
2023/10/19 12:24:07;;;;;;;2.20;2.13;;;7.60;99.90;;;;;;4957182;29;20464;-82
2023/10/19 12:26:34;;;;;;;3.88;3.55;;;7.60;99.90;;;;;;4960071;29;20203;-82
2023/10/19 12:29:04;;;;;;;3.30;3.20;;;7.70;99.90;;;;;;4957817;29;20403;-80
2023/10/19 12:31:31;;;;;;;2.30;2.20;;;7.60;99.90;;;;;;4952378;29;20288;-83
2023/10/19 12:33:58;;;;;;;5.00;4.80;;;7.60;99.90;;;;;;4962878;29;20204;-83
2023/10/19 12:36:31;;;;;;;3.85;3.65;;;7.80;99.90;;;;;;4952103;29;20260;-80
2023/10/19 12:39:00;;;;;;;6.35;5.93;;;7.80;99.90;;;;;;4955046;29;20549;-81
2023/10/19 12:41:28;;;;;;;2.28;2.15;;;7.80;99.90;;;;;;4949097;28;20271;-82
2023/10/19 12:44:01;;;;;;;4.05;3.80;;;7.90;99.90;;;;;;4965323;28;20218;-83
2023/10/19 12:46:29;;;;;;;8.27;7.78;;;7.90;99.90;;;;;;4955048;29;20212;-81
2023/10/19 12:48:58;;;;;;;4.65;4.03;;;8.00;99.90;;;;;;4950096;29;20294;-81
2023/10/19 12:51:25;;;;;;;3.28;3.13;;;8.00;99.90;;;;;;4950959;29;20283;-82
2023/10/19 12:53:54;;;;;;;5.45;5.03;;;8.20;99.90;;;;;;4957512;29;20208;-81
2023/10/19 12:56:24;;;;;;;3.33;3.13;;;8.10;99.90;;;;;;4953333;28;20205;-80
2023/10/19 12:58:54;;;;;;;3.10;3.00;;;8.20;99.90;;;;;;4944023;29;20208;-84
2023/10/19 13:01:22;;;;;;;3.58;3.40;;;8.20;99.90;;;;;;4954820;29;20200;-79
2023/10/19 13:03:50;;;;;;;4.32;4.13;;;8.20;99.90;;;;;;4952597;29;20212;-83
2023/10/19 13:06:19;;;;;;;6.03;5.72;;;8.10;99.90;;;;;;4950008;29;20212;-84
2023/10/19 13:08:46;;;;;;;6.40;6.10;;;8.10;99.90;;;;;;4947383;29;20236;-81
2023/10/19 13:11:14;;;;;;;2.28;2.17;;;8.10;99.90;;;;;;4964998;29;20207;-83
2023/10/19 13:13:45;;;;;;;5.07;4.80;;;8.10;99.90;;;;;;4949720;29;20208;-81
2023/10/19 13:16:14;;;;;;;2.55;2.45;;;8.10;99.90;;;;;;4957799;29;20207;-84
2023/10/19 13:18:41;;;;;;;3.30;3.03;;;8.10;99.90;;;;;;4954557;28;20220;-82
2023/10/19 13:21:16;;;;;;;5.90;5.32;;;8.10;99.90;;;;;;4945823;29;20200;-84
2023/10/19 13:23:44;;;;;;;3.85;3.70;;;8.20;99.90;;;;;;4942520;29;20654;-77
2023/10/19 13:26:17;;;;;;;3.85;3.60;;;8.20;99.90;;;;;;4943534;29;20304;-85
2023/10/19 13:28:45;;;;;;;5.25;4.95;;;8.20;99.90;;;;;;4950133;29;20227;-89
2023/10/19 13:31:16;;;;;;;7.75;7.15;;;8.20;99.90;;;;;;4947252;29;20472;-85